sensor_id;sensor_type;location;lat;lon;timestamp;temperature;humidity
54898;DHT22;40800;52.704;6.398;2023-03-20T00:02:51;8.90;99.90
54898;DHT22;40800;52.704;6.398;2023-03-20T00:05:18;9.50;99.90
54898;DHT22;40800;52.704;6.398;2023-03-20T00:07:46;9.50;99.90
54898;DHT22;40800;52.704;6.398;2023-03-20T00:10:12;9.60;99.90
54898;DHT22;40800;52.704;6.398;2023-03-20T00:12:40;9.00;99.90
54898;DHT22;40800;52.704;6.398;2023-03-20T00:15:34;9.60;99.90
54898;DHT22;40800;52.704;6.398;2023-03-20T00:18:00;8.90;99.90
54898;DHT22;40800;52.704;6.398;2023-03-20T00:20:26;9.60;99.90
54898;DHT22;40800;52.704;6.398;2023-03-20T00:22:52;9.10;99.90
54898;DHT22;40800;52.704;6.398;2023-03-20T00:25:22;9.60;99.90
54898;DHT22;40800;52.704;6.398;2023-03-20T00:27:48;9.20;99.90
54898;DHT22;40800;52.704;6.398;2023-03-20T00:30:26;9.10;99.90
54898;DHT22;40800;52.704;6.398;2023-03-20T00:32:53;9.40;99.90
54898;DHT22;40800;52.704;6.398;2023-03-20T00:35:23;9.50;99.90
54898;DHT22;40800;52.704;6.398;2023-03-20T00:37:51;8.80;99.90
54898;DHT22;40800;52.704;6.398;2023-03-20T00:40:17;9.20;99.90
54898;DHT22;40800;52.704;6.398;2023-03-20T00:42:46;9.10;99.90
54898;DHT22;40800;52.704;6.398;2023-03-20T00:45:19;9.00;99.90
54898;DHT22;40800;52.704;6.398;2023-03-20T00:47:47;9.00;99.90
54898;DHT22;40800;52.704;6.398;2023-03-20T00:50:19;9.30;99.90
54898;DHT22;40800;52.704;6.398;2023-03-20T00:52:47;8.80;99.90
54898;DHT22;40800;52.704;6.398;2023-03-20T00:55:13;8.70;99.90
54898;DHT22;40800;52.704;6.398;2023-03-20T00:57:45;9.20;99.90
54898;DHT22;40800;52.704;6.398;2023-03-20T01:00:29;9.20;99.90
54898;DHT22;40800;52.704;6.398;2023-03-20T01:02:58;9.20;99.90
54898;DHT22;40800;52.704;6.398;2023-03-20T01:05:26;8.60;99.90
54898;DHT22;40800;52.704;6.398;2023-03-20T01:07:52;8.70;99.90
54898;DHT22;40800;52.704;6.398;2023-03-20T01:10:17;8.80;99.90
54898;DHT22;40800;52.704;6.398;2023-03-20T01:12:43;9.10;99.90
54898;DHT22;40800;52.704;6.398;2023-03-20T01:15:21;8.60;99.90
54898;DHT22;40800;52.704;6.398;2023-03-20T01:17:48;9.10;99.90
54898;DHT22;40800;52.704;6.398;2023-03-20T01:20:21;8.60;99.90
54898;DHT22;40800;52.704;6.398;2023-03-20T01:22:47;9.10;99.90
54898;DHT22;40800;52.704;6.398;2023-03-20T01:25:14;8.70;99.90
54898;DHT22;40800;52.704;6.398;2023-03-20T01:27:41;8.60;99.90
54898;DHT22;40800;52.704;6.398;2023-03-20T01:30:16;8.60;99.90
54898;DHT22;40800;52.704;6.398;2023-03-20T01:32:42;8.60;99.90
54898;DHT22;40800;52.704;6.398;2023-03-20T01:35:12;8.60;99.90
54898;DHT22;40800;52.704;6.398;2023-03-20T01:37:38;8.80;99.90
54898;DHT22;40800;52.704;6.398;2023-03-20T01:40:13;8.60;99.90
54898;DHT22;40800;52.704;6.398;2023-03-20T01:42:41;9.10;99.90
54898;DHT22;40800;52.704;6.398;2023-03-20T01:45:15;8.70;99.90
54898;DHT22;40800;52.704;6.398;2023-03-20T01:47:41;9.20;99.90
54898;DHT22;40800;52.704;6.398;2023-03-20T01:53:03;9.00;99.90
54898;DHT22;40800;52.704;6.398;2023-03-20T01:55:30;8.60;99.90
54898;DHT22;40800;52.704;6.398;2023-03-20T01:58:00;8.70;99.90
54898;DHT22;40800;52.704;6.398;2023-03-20T02:00:28;9.20;99.90
54898;DHT22;40800;52.704;6.398;2023-03-20T02:02:53;9.00;99.90
54898;DHT22;40800;52.704;6.398;2023-03-20T02:05:21;9.20;99.90
54898;DHT22;40800;52.704;6.398;2023-03-20T02:07:53;9.20;99.90
54898;DHT22;40800;52.704;6.398;2023-03-20T02:10:20;9.20;99.90
54898;DHT22;40800;52.704;6.398;2023-03-20T02:12:46;9.00;99.90
54898;DHT22;40800;52.704;6.398;2023-03-20T02:15:13;9.00;99.90
54898;DHT22;40800;52.704;6.398;2023-03-20T02:17:40;9.30;99.90
54898;DHT22;40800;52.704;6.398;2023-03-20T02:22:58;8.70;99.90
54898;DHT22;40800;52.704;6.398;2023-03-20T02:25:47;9.00;99.90
54898;DHT22;40800;52.704;6.398;2023-03-20T02:34:35;8.80;99.90
54898;DHT22;40800;52.704;6.398;2023-03-20T02:37:29;8.90;99.90
54898;DHT22;40800;52.704;6.398;2023-03-20T02:40:28;8.70;99.90
54898;DHT22;40800;52.704;6.398;2023-03-20T02:43:01;9.20;99.90
54898;DHT22;40800;52.704;6.398;2023-03-20T02:45:36;9.20;99.90
54898;DHT22;40800;52.704;6.398;2023-03-20T02:48:44;8.70;99.90
54898;DHT22;40800;52.704;6.398;2023-03-20T02:56:24;8.60;99.90
54898;DHT22;40800;52.704;6.398;2023-03-20T02:58:58;9.00;99.90
54898;DHT22;40800;52.704;6.398;2023-03-20T03:01:31;9.20;99.90
54898;DHT22;40800;52.704;6.398;2023-03-20T03:06:35;8.70;99.90
54898;DHT22;40800;52.704;6.398;2023-03-20T03:09:22;8.70;99.90
54898;DHT22;40800;52.704;6.398;2023-03-20T03:11:53;9.10;99.90
54898;DHT22;40800;52.704;6.398;2023-03-20T03:14:39;9.10;99.90
54898;DHT22;40800;52.704;6.398;2023-03-20T03:17:07;8.60;99.90
54898;DHT22;40800;52.704;6.398;2023-03-20T03:19:36;8.60;99.90
54898;DHT22;40800;52.704;6.398;2023-03-20T03:22:03;8.60;99.90
54898;DHT22;40800;52.704;6.398;2023-03-20T03:24:42;8.70;99.90
54898;DHT22;40800;52.704;6.398;2023-03-20T03:27:18;8.60;99.90
54898;DHT22;40800;52.704;6.398;2023-03-20T03:29:52;8.70;99.90
54898;DHT22;40800;52.704;6.398;2023-03-20T03:34:52;8.80;99.90
54898;DHT22;40800;52.704;6.398;2023-03-20T03:37:23;8.60;99.90
54898;DHT22;40800;52.704;6.398;2023-03-20T03:42:45;8.60;99.90
54898;DHT22;40800;52.704;6.398;2023-03-20T03:45:28;8.70;99.90
54898;DHT22;40800;52.704;6.398;2023-03-20T03:48:10;8.60;99.90
54898;DHT22;40800;52.704;6.398;2023-03-20T03:50:45;9.00;99.90
54898;DHT22;40800;52.704;6.398;2023-03-20T03:53:21;8.70;99.90
54898;DHT22;40800;52.704;6.398;2023-03-20T03:55:54;8.60;99.90
54898;DHT22;40800;52.704;6.398;2023-03-20T03:58:36;8.80;99.90
54898;DHT22;40800;52.704;6.398;2023-03-20T04:01:06;8.60;99.90
54898;DHT22;40800;52.704;6.398;2023-03-20T04:03:39;8.70;99.90
54898;DHT22;40800;52.704;6.398;2023-03-20T04:06:06;8.50;99.90
54898;DHT22;40800;52.704;6.398;2023-03-20T04:08:33;8.80;99.90
54898;DHT22;40800;52.704;6.398;2023-03-20T04:10:59;8.70;99.90
54898;DHT22;40800;52.704;6.398;2023-03-20T04:13:24;8.40;99.90
54898;DHT22;40800;52.704;6.398;2023-03-20T04:15:50;8.50;99.90
54898;DHT22;40800;52.704;6.398;2023-03-20T04:18:17;8.50;99.90
54898;DHT22;40800;52.704;6.398;2023-03-20T04:20:44;8.40;99.90
54898;DHT22;40800;52.704;6.398;2023-03-20T04:23:10;8.70;99.90
54898;DHT22;40800;52.704;6.398;2023-03-20T04:25:36;8.70;99.90
54898;DHT22;40800;52.704;6.398;2023-03-20T04:28:01;8.40;99.90
54898;DHT22;40800;52.704;6.398;2023-03-20T04:30:27;8.40;99.90
54898;DHT22;40800;52.704;6.398;2023-03-20T04:32:53;8.80;99.90
54898;DHT22;40800;52.704;6.398;2023-03-20T04:35:18;8.80;99.90
54898;DHT22;40800;52.704;6.398;2023-03-20T04:37:44;8.60;99.90
54898;DHT22;40800;52.704;6.398;2023-03-20T04:40:10;8.50;99.90
54898;DHT22;40800;52.704;6.398;2023-03-20T04:42:35;8.60;99.90
54898;DHT22;40800;52.704;6.398;2023-03-20T04:45:01;8.50;99.90
54898;DHT22;40800;52.704;6.398;2023-03-20T04:47:27;8.40;99.90
54898;DHT22;40800;52.704;6.398;2023-03-20T04:49:52;8.30;99.90
54898;DHT22;40800;52.704;6.398;2023-03-20T04:52:18;8.50;99.90
54898;DHT22;40800;52.704;6.398;2023-03-20T04:54:43;8.30;99.90
54898;DHT22;40800;52.704;6.398;2023-03-20T04:57:09;8.50;99.90
54898;DHT22;40800;52.704;6.398;2023-03-20T04:59:34;8.30;99.90
54898;DHT22;40800;52.704;6.398;2023-03-20T05:02:00;8.30;99.90
54898;DHT22;40800;52.704;6.398;2023-03-20T05:04:25;8.20;99.90
54898;DHT22;40800;52.704;6.398;2023-03-20T05:06:52;8.60;99.90
54898;DHT22;40800;52.704;6.398;2023-03-20T05:09:17;8.30;99.90
54898;DHT22;40800;52.704;6.398;2023-03-20T05:11:43;8.30;99.90
54898;DHT22;40800;52.704;6.398;2023-03-20T05:14:08;8.40;99.90
54898;DHT22;40800;52.704;6.398;2023-03-20T05:16:34;8.50;99.90
54898;DHT22;40800;52.704;6.398;2023-03-20T05:19:00;8.50;99.90
54898;DHT22;40800;52.704;6.398;2023-03-20T05:21:25;8.50;99.90
54898;DHT22;40800;52.704;6.398;2023-03-20T05:23:51;8.50;99.90
54898;DHT22;40800;52.704;6.398;2023-03-20T05:26:16;8.40;99.90
54898;DHT22;40800;52.704;6.398;2023-03-20T05:28:42;8.30;99.90
54898;DHT22;40800;52.704;6.398;2023-03-20T05:31:08;8.20;99.90
54898;DHT22;40800;52.704;6.398;2023-03-20T05:33:33;8.20;99.90
54898;DHT22;40800;52.704;6.398;2023-03-20T05:35:59;8.20;99.90
54898;DHT22;40800;52.704;6.398;2023-03-20T05:38:24;8.50;99.90
54898;DHT22;40800;52.704;6.398;2023-03-20T05:40:56;8.40;99.90
54898;DHT22;40800;52.704;6.398;2023-03-20T05:43:22;8.50;99.90
54898;DHT22;40800;52.704;6.398;2023-03-20T05:45:47;8.40;99.90
54898;DHT22;40800;52.704;6.398;2023-03-20T05:48:13;8.50;99.90
54898;DHT22;40800;52.704;6.398;2023-03-20T05:50:38;8.50;99.90
54898;DHT22;40800;52.704;6.398;2023-03-20T05:53:04;8.30;99.90
54898;DHT22;40800;52.704;6.398;2023-03-20T05:55:30;8.30;99.90
54898;DHT22;40800;52.704;6.398;2023-03-20T05:57:57;8.50;99.90
54898;DHT22;40800;52.704;6.398;2023-03-20T06:00:23;8.40;99.90
54898;DHT22;40800;52.704;6.398;2023-03-20T06:02:48;8.40;99.90
54898;DHT22;40800;52.704;6.398;2023-03-20T06:05:14;8.30;99.90
54898;DHT22;40800;52.704;6.398;2023-03-20T06:07:40;8.30;99.90
54898;DHT22;40800;52.704;6.398;2023-03-20T06:10:06;8.30;99.90
54898;DHT22;40800;52.704;6.398;2023-03-20T06:12:31;8.30;99.90
54898;DHT22;40800;52.704;6.398;2023-03-20T06:14:57;8.40;99.90
54898;DHT22;40800;52.704;6.398;2023-03-20T06:17:23;8.30;99.90
54898;DHT22;40800;52.704;6.398;2023-03-20T06:19:48;8.40;99.90
54898;DHT22;40800;52.704;6.398;2023-03-20T06:22:14;8.30;99.90
54898;DHT22;40800;52.704;6.398;2023-03-20T06:24:39;8.30;99.90
54898;DHT22;40800;52.704;6.398;2023-03-20T06:27:05;8.40;99.90
54898;DHT22;40800;52.704;6.398;2023-03-20T06:29:30;8.40;99.90
54898;DHT22;40800;52.704;6.398;2023-03-20T06:31:56;8.40;99.90
54898;DHT22;40800;52.704;6.398;2023-03-20T06:34:22;8.50;99.90
54898;DHT22;40800;52.704;6.398;2023-03-20T06:36:47;8.50;99.90
54898;DHT22;40800;52.704;6.398;2023-03-20T06:39:13;8.40;99.90
54898;DHT22;40800;52.704;6.398;2023-03-20T06:41:39;8.40;99.90
54898;DHT22;40800;52.704;6.398;2023-03-20T06:44:04;8.40;99.90
54898;DHT22;40800;52.704;6.398;2023-03-20T06:46:30;8.50;99.90
54898;DHT22;40800;52.704;6.398;2023-03-20T06:48:55;8.40;99.90
54898;DHT22;40800;52.704;6.398;2023-03-20T06:51:21;8.40;99.90
54898;DHT22;40800;52.704;6.398;2023-03-20T06:53:46;8.50;99.90
54898;DHT22;40800;52.704;6.398;2023-03-20T06:56:12;8.50;99.90
54898;DHT22;40800;52.704;6.398;2023-03-20T06:58:38;8.40;99.90
54898;DHT22;40800;52.704;6.398;2023-03-20T07:01:12;8.50;99.90
54898;DHT22;40800;52.704;6.398;2023-03-20T07:03:39;8.50;99.90
54898;DHT22;40800;52.704;6.398;2023-03-20T07:06:06;8.60;99.90
54898;DHT22;40800;52.704;6.398;2023-03-20T07:08:32;8.60;99.90
54898;DHT22;40800;52.704;6.398;2023-03-20T07:10:58;8.60;99.90
54898;DHT22;40800;52.704;6.398;2023-03-20T07:13:24;8.70;99.90
54898;DHT22;40800;52.704;6.398;2023-03-20T07:15:50;8.60;99.90
54898;DHT22;40800;52.704;6.398;2023-03-20T07:18:16;8.60;99.90
54898;DHT22;40800;52.704;6.398;2023-03-20T07:20:43;8.60;99.90
54898;DHT22;40800;52.704;6.398;2023-03-20T07:23:08;8.60;99.90
54898;DHT22;40800;52.704;6.398;2023-03-20T07:25:35;8.60;99.90
54898;DHT22;40800;52.704;6.398;2023-03-20T07:28:00;8.70;99.90
54898;DHT22;40800;52.704;6.398;2023-03-20T07:30:26;8.70;99.90
54898;DHT22;40800;52.704;6.398;2023-03-20T07:32:52;8.60;99.90
54898;DHT22;40800;52.704;6.398;2023-03-20T07:35:17;8.70;99.90
54898;DHT22;40800;52.704;6.398;2023-03-20T07:37:43;8.60;99.90
54898;DHT22;40800;52.704;6.398;2023-03-20T07:40:09;8.80;99.90
54898;DHT22;40800;52.704;6.398;2023-03-20T07:42:35;8.70;99.90
54898;DHT22;40800;52.704;6.398;2023-03-20T07:45:01;8.80;99.90
54898;DHT22;40800;52.704;6.398;2023-03-20T07:47:26;8.90;99.90
54898;DHT22;40800;52.704;6.398;2023-03-20T07:49:52;8.80;99.90
54898;DHT22;40800;52.704;6.398;2023-03-20T07:52:20;8.90;99.90
54898;DHT22;40800;52.704;6.398;2023-03-20T07:54:45;8.90;99.90
54898;DHT22;40800;52.704;6.398;2023-03-20T07:57:11;9.00;99.90
54898;DHT22;40800;52.704;6.398;2023-03-20T07:59:36;8.90;99.90
54898;DHT22;40800;52.704;6.398;2023-03-20T08:02:02;9.10;99.90
54898;DHT22;40800;52.704;6.398;2023-03-20T08:04:28;9.00;99.90
54898;DHT22;40800;52.704;6.398;2023-03-20T08:06:53;9.10;99.90
54898;DHT22;40800;52.704;6.398;2023-03-20T08:09:19;9.10;99.90
54898;DHT22;40800;52.704;6.398;2023-03-20T08:11:45;9.20;99.90
54898;DHT22;40800;52.704;6.398;2023-03-20T08:14:11;9.20;99.90
54898;DHT22;40800;52.704;6.398;2023-03-20T08:16:37;9.20;99.90
54898;DHT22;40800;52.704;6.398;2023-03-20T08:19:02;9.20;99.90
54898;DHT22;40800;52.704;6.398;2023-03-20T08:21:30;9.30;99.90
54898;DHT22;40800;52.704;6.398;2023-03-20T08:23:56;9.40;99.90
54898;DHT22;40800;52.704;6.398;2023-03-20T08:26:22;9.40;99.90
54898;DHT22;40800;52.704;6.398;2023-03-20T08:28:48;9.50;99.90
54898;DHT22;40800;52.704;6.398;2023-03-20T08:31:13;9.40;99.90
54898;DHT22;40800;52.704;6.398;2023-03-20T08:33:39;9.50;99.90
54898;DHT22;40800;52.704;6.398;2023-03-20T08:36:05;9.60;99.90
54898;DHT22;40800;52.704;6.398;2023-03-20T08:38:31;9.60;99.90
54898;DHT22;40800;52.704;6.398;2023-03-20T08:40:56;9.70;99.90
54898;DHT22;40800;52.704;6.398;2023-03-20T08:43:22;9.80;99.90
54898;DHT22;40800;52.704;6.398;2023-03-20T08:45:48;9.80;99.90
54898;DHT22;40800;52.704;6.398;2023-03-20T08:48:13;9.80;99.90
54898;DHT22;40800;52.704;6.398;2023-03-20T08:50:39;9.80;99.90
54898;DHT22;40800;52.704;6.398;2023-03-20T08:53:05;9.90;99.90
54898;DHT22;40800;52.704;6.398;2023-03-20T08:55:31;9.90;99.90
54898;DHT22;40800;52.704;6.398;2023-03-20T08:57:57;9.90;99.90
54898;DHT22;40800;52.704;6.398;2023-03-20T09:00:23;9.90;99.90
54898;DHT22;40800;52.704;6.398;2023-03-20T09:02:49;10.00;99.90
54898;DHT22;40800;52.704;6.398;2023-03-20T09:05:15;10.00;99.90
54898;DHT22;40800;52.704;6.398;2023-03-20T09:07:41;10.10;99.90
54898;DHT22;40800;52.704;6.398;2023-03-20T09:10:07;10.20;99.90
54898;DHT22;40800;52.704;6.398;2023-03-20T09:12:33;10.30;99.90
54898;DHT22;40800;52.704;6.398;2023-03-20T09:14:59;10.40;99.90
54898;DHT22;40800;52.704;6.398;2023-03-20T09:17:24;10.50;99.90
54898;DHT22;40800;52.704;6.398;2023-03-20T09:19:50;10.60;99.90
54898;DHT22;40800;52.704;6.398;2023-03-20T09:22:16;10.60;99.90
54898;DHT22;40800;52.704;6.398;2023-03-20T09:24:45;10.70;99.90
54898;DHT22;40800;52.704;6.398;2023-03-20T09:27:11;10.80;99.90
54898;DHT22;40800;52.704;6.398;2023-03-20T09:29:39;10.90;99.90
54898;DHT22;40800;52.704;6.398;2023-03-20T09:32:05;10.90;99.90
54898;DHT22;40800;52.704;6.398;2023-03-20T09:34:30;11.00;99.90
54898;DHT22;40800;52.704;6.398;2023-03-20T09:36:56;11.00;99.90
54898;DHT22;40800;52.704;6.398;2023-03-20T09:39:22;11.10;99.90
54898;DHT22;40800;52.704;6.398;2023-03-20T09:41:48;11.10;99.90
54898;DHT22;40800;52.704;6.398;2023-03-20T09:44:42;11.10;99.90
54898;DHT22;40800;52.704;6.398;2023-03-20T09:47:38;11.10;99.90
54898;DHT22;40800;52.704;6.398;2023-03-20T09:50:17;11.00;99.90
54898;DHT22;40800;52.704;6.398;2023-03-20T09:53:00;11.00;99.90
54898;DHT22;40800;52.704;6.398;2023-03-20T09:55:38;11.10;99.90
54898;DHT22;40800;52.704;6.398;2023-03-20T09:58:24;11.10;99.90
54898;DHT22;40800;52.704;6.398;2023-03-20T10:00:55;11.30;99.90
54898;DHT22;40800;52.704;6.398;2023-03-20T10:03:35;11.30;99.90
54898;DHT22;40800;52.704;6.398;2023-03-20T10:06:04;11.20;99.90
54898;DHT22;40800;52.704;6.398;2023-03-20T10:08:34;11.10;99.90
54898;DHT22;40800;52.704;6.398;2023-03-20T10:19:28;10.90;99.90
54898;DHT22;40800;52.704;6.398;2023-03-20T10:22:09;10.90;99.90
54898;DHT22;40800;52.704;6.398;2023-03-20T10:24:41;10.80;99.90
54898;DHT22;40800;52.704;6.398;2023-03-20T10:27:33;10.70;99.90
54898;DHT22;40800;52.704;6.398;2023-03-20T10:32:37;10.70;99.90
54898;DHT22;40800;52.704;6.398;2023-03-20T10:35:32;10.60;99.90
54898;DHT22;40800;52.704;6.398;2023-03-20T10:40:39;10.50;99.90
54898;DHT22;40800;52.704;6.398;2023-03-20T10:43:29;10.50;99.90
54898;DHT22;40800;52.704;6.398;2023-03-20T10:48:51;10.50;99.90
54898;DHT22;40800;52.704;6.398;2023-03-20T10:51:21;10.50;99.90
54898;DHT22;40800;52.704;6.398;2023-03-20T10:53:55;10.50;99.90
54898;DHT22;40800;52.704;6.398;2023-03-20T10:56:34;10.60;99.90
54898;DHT22;40800;52.704;6.398;2023-03-20T10:59:21;10.60;99.90
54898;DHT22;40800;52.704;6.398;2023-03-20T11:01:47;10.50;99.90
54898;DHT22;40800;52.704;6.398;2023-03-20T11:04:12;10.40;99.90
54898;DHT22;40800;52.704;6.398;2023-03-20T11:07:30;10.40;99.90
54898;DHT22;40800;52.704;6.398;2023-03-20T11:09:28;10.30;99.90
54898;DHT22;40800;52.704;6.398;2023-03-20T11:11:58;10.30;99.90
54898;DHT22;40800;52.704;6.398;2023-03-20T11:14:36;10.30;99.90
54898;DHT22;40800;52.704;6.398;2023-03-20T11:17:04;10.40;99.90
54898;DHT22;40800;52.704;6.398;2023-03-20T11:19:38;10.40;99.90
54898;DHT22;40800;52.704;6.398;2023-03-20T11:22:24;10.40;99.90
54898;DHT22;40800;52.704;6.398;2023-03-20T11:24:53;10.40;99.90
54898;DHT22;40800;52.704;6.398;2023-03-20T11:27:27;10.40;99.90
54898;DHT22;40800;52.704;6.398;2023-03-20T11:29:54;10.40;99.90
54898;DHT22;40800;52.704;6.398;2023-03-20T11:32:41;10.40;99.90
54898;DHT22;40800;52.704;6.398;2023-03-20T11:37:54;10.50;99.90
54898;DHT22;40800;52.704;6.398;2023-03-20T11:40:31;10.60;99.90
54898;DHT22;40800;52.704;6.398;2023-03-20T11:45:27;10.60;99.90
54898;DHT22;40800;52.704;6.398;2023-03-20T11:48:00;10.60;99.90
54898;DHT22;40800;52.704;6.398;2023-03-20T11:52:54;10.70;99.90
54898;DHT22;40800;52.704;6.398;2023-03-20T11:55:27;10.70;99.90
54898;DHT22;40800;52.704;6.398;2023-03-20T11:58:04;10.70;99.90
54898;DHT22;40800;52.704;6.398;2023-03-20T12:00:41;10.80;99.90
54898;DHT22;40800;52.704;6.398;2023-03-20T12:09:45;10.80;99.90
54898;DHT22;40800;52.704;6.398;2023-03-20T12:12:21;10.80;99.90
54898;DHT22;40800;52.704;6.398;2023-03-20T12:15:02;10.80;99.90
54898;DHT22;40800;52.704;6.398;2023-03-20T12:17:42;10.70;99.90
54898;DHT22;40800;52.704;6.398;2023-03-20T12:23:21;10.70;99.90
54898;DHT22;40800;52.704;6.398;2023-03-20T12:31:38;10.40;99.90
54898;DHT22;40800;52.704;6.398;2023-03-20T12:36:43;10.10;99.90
54898;DHT22;40800;52.704;6.398;2023-03-20T12:39:18;9.90;99.90
54898;DHT22;40800;52.704;6.398;2023-03-20T12:50:30;9.60;99.90
54898;DHT22;40800;52.704;6.398;2023-03-20T12:55:54;9.80;99.90
54898;DHT22;40800;52.704;6.398;2023-03-20T13:01:26;9.50;99.90
54898;DHT22;40800;52.704;6.398;2023-03-20T13:06:54;9.50;99.90
54898;DHT22;40800;52.704;6.398;2023-03-20T13:12:32;9.20;99.90
54898;DHT22;40800;52.704;6.398;2023-03-20T13:20:45;9.60;99.90
54898;DHT22;40800;52.704;6.398;2023-03-20T13:23:20;9.50;99.90
54898;DHT22;40800;52.704;6.398;2023-03-20T13:28:28;9.50;99.90
54898;DHT22;40800;52.704;6.398;2023-03-20T13:36:30;9.30;99.90
54898;DHT22;40800;52.704;6.398;2023-03-20T13:39:23;9.30;99.90
54898;DHT22;40800;52.704;6.398;2023-03-20T13:41:49;8.90;99.90
54898;DHT22;40800;52.704;6.398;2023-03-20T13:44:17;8.90;99.90
54898;DHT22;40800;52.704;6.398;2023-03-20T13:46:50;9.40;99.90
54898;DHT22;40800;52.704;6.398;2023-03-20T13:49:24;9.40;99.90
54898;DHT22;40800;52.704;6.398;2023-03-20T13:52:02;9.00;99.90
54898;DHT22;40800;52.704;6.398;2023-03-20T13:54:38;9.00;99.90
54898;DHT22;40800;52.704;6.398;2023-03-20T13:57:42;9.00;99.90
54898;DHT22;40800;52.704;6.398;2023-03-20T14:00:26;8.90;99.90
54898;DHT22;40800;52.704;6.398;2023-03-20T14:05:43;9.20;99.90
54898;DHT22;40800;52.704;6.398;2023-03-20T14:13:52;9.50;99.90
54898;DHT22;40800;52.704;6.398;2023-03-20T14:16:20;9.00;99.90
54898;DHT22;40800;52.704;6.398;2023-03-20T14:19:04;9.30;99.90
54898;DHT22;40800;52.704;6.398;2023-03-20T14:21:30;9.50;99.90
54898;DHT22;40800;52.704;6.398;2023-03-20T14:24:02;9.10;99.90
54898;DHT22;40800;52.704;6.398;2023-03-20T14:26:30;9.00;99.90
54898;DHT22;40800;52.704;6.398;2023-03-20T14:29:18;9.20;99.90
54898;DHT22;40800;52.704;6.398;2023-03-20T14:31:47;9.50;99.90
54898;DHT22;40800;52.704;6.398;2023-03-20T14:34:20;9.00;99.90
54898;DHT22;40800;52.704;6.398;2023-03-20T14:37:01;9.40;99.90
54898;DHT22;40800;52.704;6.398;2023-03-20T14:39:47;9.10;99.90
54898;DHT22;40800;52.704;6.398;2023-03-20T14:42:21;9.00;99.90
54898;DHT22;40800;52.704;6.398;2023-03-20T14:45:25;9.60;99.90
54898;DHT22;40800;52.704;6.398;2023-03-20T14:48:15;9.10;99.90
54898;DHT22;40800;52.704;6.398;2023-03-20T14:51:03;9.50;99.90
54898;DHT22;40800;52.704;6.398;2023-03-20T14:53:31;9.60;99.90
54898;DHT22;40800;52.704;6.398;2023-03-20T14:56:10;9.70;99.90
54898;DHT22;40800;52.704;6.398;2023-03-20T15:01:07;9.00;99.90
54898;DHT22;40800;52.704;6.398;2023-03-20T15:03:36;9.10;99.90
54898;DHT22;40800;52.704;6.398;2023-03-20T15:06:05;9.50;99.90
54898;DHT22;40800;52.704;6.398;2023-03-20T15:08:34;9.20;99.90
54898;DHT22;40800;52.704;6.398;2023-03-20T15:11:08;9.80;99.90
54898;DHT22;40800;52.704;6.398;2023-03-20T15:13:35;9.80;99.90
54898;DHT22;40800;52.704;6.398;2023-03-20T15:16:10;9.00;99.90
54898;DHT22;40800;52.704;6.398;2023-03-20T15:18:39;9.70;99.90
54898;DHT22;40800;52.704;6.398;2023-03-20T15:21:38;9.10;99.90
54898;DHT22;40800;52.704;6.398;2023-03-20T15:24:06;9.60;99.90
54898;DHT22;40800;52.704;6.398;2023-03-20T15:26:33;10.00;99.90
54898;DHT22;40800;52.704;6.398;2023-03-20T15:29:17;10.10;99.90
54898;DHT22;40800;52.704;6.398;2023-03-20T15:31:44;9.60;99.90
54898;DHT22;40800;52.704;6.398;2023-03-20T15:34:31;9.80;99.90
54898;DHT22;40800;52.704;6.398;2023-03-20T15:36:58;10.10;99.90
54898;DHT22;40800;52.704;6.398;2023-03-20T15:39:27;9.70;99.90
54898;DHT22;40800;52.704;6.398;2023-03-20T15:42:00;9.30;99.90
54898;DHT22;40800;52.704;6.398;2023-03-20T15:44:40;9.80;99.90
54898;DHT22;40800;52.704;6.398;2023-03-20T15:49:36;9.30;99.90
54898;DHT22;40800;52.704;6.398;2023-03-20T15:52:06;9.30;99.90
54898;DHT22;40800;52.704;6.398;2023-03-20T15:54:33;9.80;99.90
54898;DHT22;40800;52.704;6.398;2023-03-20T15:57:02;9.60;99.90
54898;DHT22;40800;52.704;6.398;2023-03-20T15:59:31;9.60;99.90
54898;DHT22;40800;52.704;6.398;2023-03-20T16:01:58;10.30;99.90
54898;DHT22;40800;52.704;6.398;2023-03-20T16:04:25;9.60;99.90
54898;DHT22;40800;52.704;6.398;2023-03-20T16:06:56;9.50;99.90
54898;DHT22;40800;52.704;6.398;2023-03-20T16:09:22;10.00;99.90
54898;DHT22;40800;52.704;6.398;2023-03-20T16:11:55;10.40;99.90
54898;DHT22;40800;52.704;6.398;2023-03-20T16:14:23;10.20;99.90
54898;DHT22;40800;52.704;6.398;2023-03-20T16:16:51;10.30;99.90
54898;DHT22;40800;52.704;6.398;2023-03-20T16:19:18;9.70;99.90
54898;DHT22;40800;52.704;6.398;2023-03-20T16:21:47;9.30;99.90
54898;DHT22;40800;52.704;6.398;2023-03-20T16:24:18;10.50;99.90
54898;DHT22;40800;52.704;6.398;2023-03-20T16:26:48;10.50;99.90
54898;DHT22;40800;52.704;6.398;2023-03-20T16:29:14;9.30;99.90
54898;DHT22;40800;52.704;6.398;2023-03-20T16:31:44;10.20;99.90
54898;DHT22;40800;52.704;6.398;2023-03-20T16:34:18;10.50;99.90
54898;DHT22;40800;52.704;6.398;2023-03-20T16:36:51;10.40;99.90
54898;DHT22;40800;52.704;6.398;2023-03-20T16:39:19;10.30;99.90
54898;DHT22;40800;52.704;6.398;2023-03-20T16:41:46;10.30;99.90
54898;DHT22;40800;52.704;6.398;2023-03-20T16:44:19;10.60;99.90
54898;DHT22;40800;52.704;6.398;2023-03-20T16:50:08;9.50;99.90
54898;DHT22;40800;52.704;6.398;2023-03-20T16:52:43;10.10;99.90
54898;DHT22;40800;52.704;6.398;2023-03-20T16:55:20;10.70;99.90
54898;DHT22;40800;52.704;6.398;2023-03-20T16:57:50;9.50;99.90
54898;DHT22;40800;52.704;6.398;2023-03-20T17:00:29;9.40;99.90
54898;DHT22;40800;52.704;6.398;2023-03-20T17:03:45;9.40;99.90
54898;DHT22;40800;52.704;6.398;2023-03-20T17:05:55;9.80;99.90
54898;DHT22;40800;52.704;6.398;2023-03-20T17:08:31;10.70;99.90
54898;DHT22;40800;52.704;6.398;2023-03-20T17:11:00;10.70;99.90
54898;DHT22;40800;52.704;6.398;2023-03-20T17:13:27;10.10;99.90
54898;DHT22;40800;52.704;6.398;2023-03-20T17:15:53;9.80;99.90
54898;DHT22;40800;52.704;6.398;2023-03-20T17:18:19;10.40;99.90
54898;DHT22;40800;52.704;6.398;2023-03-20T17:20:44;9.90;99.90
54898;DHT22;40800;52.704;6.398;2023-03-20T17:23:15;10.30;99.90
54898;DHT22;40800;52.704;6.398;2023-03-20T17:25:42;10.40;99.90
54898;DHT22;40800;52.704;6.398;2023-03-20T17:28:16;9.50;99.90
54898;DHT22;40800;52.704;6.398;2023-03-20T17:30:43;10.20;99.90
54898;DHT22;40800;52.704;6.398;2023-03-20T17:33:14;9.70;99.90
54898;DHT22;40800;52.704;6.398;2023-03-20T17:35:40;9.50;99.90
54898;DHT22;40800;52.704;6.398;2023-03-20T17:38:11;9.60;99.90
54898;DHT22;40800;52.704;6.398;2023-03-20T17:40:39;9.50;99.90
54898;DHT22;40800;52.704;6.398;2023-03-20T17:43:09;10.10;99.90
54898;DHT22;40800;52.704;6.398;2023-03-20T17:45:35;10.60;99.90
54898;DHT22;40800;52.704;6.398;2023-03-20T17:48:01;9.60;99.90
54898;DHT22;40800;52.704;6.398;2023-03-20T17:50:26;10.10;99.90
54898;DHT22;40800;52.704;6.398;2023-03-20T17:52:52;10.30;99.90
54898;DHT22;40800;52.704;6.398;2023-03-20T17:55:18;10.80;99.90
54898;DHT22;40800;52.704;6.398;2023-03-20T17:57:44;9.50;99.90
54898;DHT22;40800;52.704;6.398;2023-03-20T18:00:14;10.30;99.90
54898;DHT22;40800;52.704;6.398;2023-03-20T18:02:41;10.70;99.90